TimeEST,TemperatureF,Dew PointF,Humidity,Sea Level PressureIn,VisibilityMPH,Wind Direction,Wind SpeedMPH,Gust SpeedMPH,PrecipitationIn,Events,Conditions,WindDirDegrees,DateUTC
12:15 AM,32.2,31.8,99,29.91,10.0,Calm,Calm,-,N/A,,Overcast,0,2013-12-03 05:15:00
12:35 AM,32.4,32.0,99,29.91,10.0,Calm,Calm,-,N/A,,Overcast,0,2013-12-03 05:35:00
12:55 AM,32.2,31.8,99,29.91,10.0,Calm,Calm,-,N/A,,Overcast,0,2013-12-03 05:55:00
1:15 AM,32.4,32.0,99,29.92,10.0,Calm,Calm,-,N/A,,Overcast,0,2013-12-03 06:15:00
1:35 AM,32.5,32.0,98,29.93,10.0,Calm,Calm,-,N/A,,Overcast,0,2013-12-03 06:35:00
1:55 AM,32.5,32.0,98,29.93,10.0,Calm,Calm,-,N/A,,Overcast,0,2013-12-03 06:55:00
2:15 AM,32.5,32.0,98,29.92,10.0,Calm,Calm,-,N/A,,Overcast,0,2013-12-03 07:15:00
2:35 AM,33.8,32.4,94,29.91,10.0,Calm,Calm,-,N/A,,Overcast,0,2013-12-03 07:35:00
2:55 AM,34.0,32.9,96,29.92,10.0,Calm,Calm,-,N/A,,Overcast,0,2013-12-03 07:55:00
3:15 AM,34.0,32.9,96,29.91,10.0,NW,5.8,-,N/A,,Overcast,310,2013-12-03 08:15:00
3:35 AM,33.8,32.5,95,29.91,10.0,Calm,Calm,-,N/A,,Overcast,0,2013-12-03 08:35:00
3:55 AM,33.4,32.5,96,29.90,7.0,NW,3.5,-,N/A,,Overcast,320,2013-12-03 08:55:00
4:15 AM,32.9,32.2,97,29.90,4.0,WNW,9.2,-,N/A,,Overcast,300,2013-12-03 09:15:00
4:35 AM,32.9,32.2,97,29.90,3.0,WNW,5.8,-,N/A,,Overcast,290,2013-12-03 09:35:00
4:55 AM,32.9,32.4,98,29.90,4.0,WNW,6.9,-,N/A,,Overcast,300,2013-12-03 09:55:00
5:15 AM,32.9,32.4,98,29.90,5.0,WNW,5.8,-,N/A,,Overcast,300,2013-12-03 10:15:00
5:35 AM,32.9,32.2,97,29.91,10.0,WNW,9.2,-,N/A,,Overcast,300,2013-12-03 10:35:00
5:55 AM,32.5,32.0,98,29.91,10.0,WNW,6.9,-,N/A,,Overcast,300,2013-12-03 10:55:00
6:15 AM,32.5,32.0,98,29.91,10.0,West,6.9,-,N/A,,Overcast,280,2013-12-03 11:15:00
6:35 AM,32.4,31.8,98,29.91,7.0,Calm,Calm,-,N/A,,Overcast,0,2013-12-03 11:35:00
6:55 AM,32.0,31.1,96,29.91,0.8,Calm,Calm,-,N/A,,Overcast,0,2013-12-03 11:55:00
7:15 AM,32.0,31.5,98,29.91,0.5,Calm,Calm,-,N/A,Fog,Fog,0,2013-12-03 12:15:00
7:35 AM,32.0,31.6,99,29.91,0.2,Calm,Calm,-,N/A,Fog,Fog,0,2013-12-03 12:35:00
7:55 AM,32.2,32.0,99,29.91,10.0,WNW,11.5,-,N/A,,Mostly Cloudy,290,2013-12-03 12:55:00
8:15 AM,32.4,32.0,99,29.91,7.0,WNW,8.1,-,N/A,,Scattered Clouds,290,2013-12-03 13:15:00
8:35 AM,32.9,32.0,96,29.91,10.0,WNW,8.1,-,N/A,,Scattered Clouds,300,2013-12-03 13:35:00
8:55 AM,33.4,32.0,94,29.91,10.0,WNW,8.1,-,N/A,,Clear,290,2013-12-03 13:55:00
9:15 AM,34.3,32.0,91,29.91,10.0,WNW,5.8,-,N/A,,Scattered Clouds,290,2013-12-03 14:15:00
9:35 AM,35.4,32.0,87,29.91,10.0,WNW,8.1,-,N/A,,Scattered Clouds,290,2013-12-03 14:35:00
9:55 AM,36.3,32.0,84,29.91,10.0,SSW,3.5,-,N/A,,Clear,200,2013-12-03 14:55:00
10:15 AM,36.9,32.0,83,29.91,10.0,West,3.5,-,N/A,,Clear,270,2013-12-03 15:15:00
10:35 AM,37.8,32.0,80,29.91,10.0,NW,8.1,-,N/A,,Clear,310,2013-12-03 15:35:00
10:55 AM,37.8,32.0,80,29.90,10.0,WNW,8.1,-,N/A,,Clear,290,2013-12-03 15:55:00
11:15 AM,37.4,32.0,81,29.89,10.0,WNW,8.1,-,N/A,,Clear,290,2013-12-03 16:15:00
11:35 AM,38.1,32.0,79,29.88,10.0,WNW,10.4,-,N/A,,Scattered Clouds,300,2013-12-03 16:35:00
11:55 AM,38.1,32.0,79,29.87,10.0,WNW,11.5,-,N/A,,Mostly Cloudy,300,2013-12-03 16:55:00
12:15 PM,37.9,32.0,79,29.87,10.0,WNW,10.4,-,N/A,,Mostly Cloudy,290,2013-12-03 17:15:00
12:35 PM,38.1,32.0,79,29.86,10.0,WNW,11.5,-,N/A,,Scattered Clouds,300,2013-12-03 17:35:00
12:55 PM,37.9,32.0,79,29.86,10.0,WNW,10.4,-,N/A,,Mostly Cloudy,290,2013-12-03 17:55:00
1:15 PM,37.8,32.0,80,29.85,10.0,WNW,9.2,-,N/A,,Mostly Cloudy,290,2013-12-03 18:15:00
1:35 PM,38.3,32.0,78,29.86,10.0,WNW,10.4,-,N/A,,Scattered Clouds,290,2013-12-03 18:35:00
1:55 PM,39.9,32.0,73,29.86,10.0,WNW,8.1,-,N/A,,Mostly Cloudy,290,2013-12-03 18:55:00
2:15 PM,39.4,31.6,74,29.86,10.0,West,10.4,-,N/A,,Scattered Clouds,280,2013-12-03 19:15:00
2:35 PM,38.8,31.1,74,29.86,10.0,WNW,9.2,-,N/A,,Clear,290,2013-12-03 19:35:00
2:55 PM,39.6,30.7,71,29.86,10.0,West,10.4,-,N/A,,Clear,280,2013-12-03 19:55:00
3:15 PM,38.7,30.7,73,29.87,10.0,WNW,6.9,-,N/A,,Clear,300,2013-12-03 20:15:00
3:35 PM,37.2,30.9,78,29.87,10.0,NW,6.9,-,N/A,,Clear,310,2013-12-03 20:35:00
3:55 PM,36.5,30.7,80,29.88,10.0,WNW,6.9,-,N/A,,Clear,300,2013-12-03 20:55:00
4:15 PM,35.6,30.7,82,29.88,10.0,NW,6.9,-,N/A,,Clear,310,2013-12-03 21:15:00
4:35 PM,35.1,31.1,85,29.89,10.0,NW,8.1,-,N/A,,Clear,310,2013-12-03 21:35:00
4:55 PM,34.7,30.7,85,29.90,10.0,WNW,8.1,-,N/A,,Clear,290,2013-12-03 21:55:00
5:15 PM,35.1,30.7,84,29.90,10.0,WNW,8.1,-,N/A,,Clear,290,2013-12-03 22:15:00
5:35 PM,34.7,30.4,84,29.90,10.0,West,6.9,-,N/A,,Clear,280,2013-12-03 22:35:00
5:55 PM,34.9,30.9,85,29.91,10.0,West,9.2,18.4,N/A,,Clear,280,2013-12-03 22:55:00
6:15 PM,35.1,30.9,85,29.91,10.0,West,9.2,16.1,N/A,,Clear,280,2013-12-03 23:15:00
6:35 PM,34.5,31.1,87,29.91,10.0,WNW,6.9,-,N/A,,Clear,290,2013-12-03 23:35:00
6:55 PM,34.7,31.1,87,29.91,10.0,WNW,9.2,-,N/A,,Clear,290,2013-12-03 23:55:00
7:15 PM,34.9,31.1,86,29.92,10.0,WNW,6.9,-,N/A,,Clear,290,2013-12-04 00:15:00
7:35 PM,34.0,31.1,89,29.92,10.0,WNW,5.8,-,N/A,,Clear,300,2013-12-04 00:35:00
7:55 PM,34.2,31.1,89,29.92,10.0,WNW,6.9,-,N/A,,Clear,290,2013-12-04 00:55:00
8:15 PM,34.3,31.1,88,29.92,10.0,NW,5.8,-,N/A,,Scattered Clouds,310,2013-12-04 01:15:00
8:35 PM,34.7,31.1,87,29.92,10.0,NNW,3.5,-,N/A,,Overcast,340,2013-12-04 01:35:00
8:55 PM,34.0,31.1,89,29.92,10.0,WNW,4.6,-,N/A,,Mostly Cloudy,290,2013-12-04 01:55:00
9:15 PM,34.3,31.1,88,29.92,10.0,WNW,5.8,-,N/A,,Clear,300,2013-12-04 02:15:00
9:35 PM,32.2,30.2,92,29.91,7.0,WNW,5.8,-,N/A,,Scattered Clouds,300,2013-12-04 02:35:00
9:55 PM,32.7,30.2,90,29.91,10.0,WNW,4.6,-,N/A,,Scattered Clouds,290,2013-12-04 02:55:00
10:15 PM,33.8,30.2,87,29.91,10.0,West,5.8,-,N/A,,Mostly Cloudy,280,2013-12-04 03:15:00
10:35 PM,34.0,29.8,85,29.92,10.0,WNW,4.6,-,N/A,,Mostly Cloudy,290,2013-12-04 03:35:00
10:55 PM,33.4,29.7,86,29.92,10.0,WNW,4.6,-,N/A,,Mostly Cloudy,300,2013-12-04 03:55:00
11:15 PM,32.4,29.1,88,29.92,10.0,WNW,3.5,-,N/A,,Mostly Cloudy,290,2013-12-04 04:15:00
11:35 PM,33.8,29.1,83,29.93,10.0,WNW,4.6,-,N/A,,Mostly Cloudy,290,2013-12-04 04:35:00
11:55 PM,32.7,28.6,85,29.92,10.0,Calm,Calm,-,N/A,,Mostly Cloudy,0,2013-12-04 04:55:00